Time;durP1;ratioP1;P1;durP2;ratioP2;P2;SDS_P1;SDS_P2;PMS_P1;PMS_P2;Temp;Humidity;BMP_temperature;BMP_pressure;BME280_temperature;BME280_humidity;BME280_pressure;Samples;Min_cycle;Max_cycle;Signal;HPM_P1;HPM_P2
2022/05/23 00:01:46;;;;;;;2.05;1.65;;;;;;;15.60;49.89;99513.37;4363455;32;33965;-71
2022/05/23 00:04:14;;;;;;;1.62;1.52;;;;;;;15.70;49.83;99512.44;4363311;32;34211;-71
2022/05/23 00:06:42;;;;;;;2.33;1.62;;;;;;;15.01;51.92;99509.75;4363529;32;34748;-71
2022/05/23 00:09:13;;;;;;;2.12;1.73;;;;;;;15.23;51.83;99511.22;4363565;32;33213;-72
2022/05/23 00:11:41;;;;;;;2.47;1.50;;;;;;;15.23;52.13;99519.44;4363439;32;33624;-71
2022/05/23 00:14:09;;;;;;;1.92;1.50;;;;;;;15.42;51.47;99514.91;4363795;32;34415;-72
2022/05/23 00:16:42;;;;;;;2.78;1.58;;;;;;;15.41;50.95;99513.25;4363434;32;34693;-72
2022/05/23 00:19:10;;;;;;;2.10;1.70;;;;;;;15.36;51.30;99508.66;4363604;32;34285;-71
2022/05/23 00:21:40;;;;;;;1.83;1.50;;;;;;;15.28;51.67;99508.44;4362917;32;34802;-72
2022/05/23 00:24:09;;;;;;;1.37;1.27;;;;;;;14.79;52.30;99510.16;4363272;32;34329;-72
2022/05/23 00:26:39;;;;;;;3.15;1.62;;;;;;;14.53;53.29;99509.44;4350043;32;34050;-72
2022/05/23 00:29:07;;;;;;;3.72;1.60;;;;;;;14.60;52.84;99504.53;4363000;32;34136;-72
2022/05/23 00:31:34;;;;;;;2.67;1.75;;;;;;;14.70;53.02;99509.91;4363287;32;34920;-72
2022/05/23 00:36:48;;;;;;;2.08;1.50;;;;;;;15.33;51.12;99505.66;4363543;32;34720;-72
2022/05/23 00:39:16;;;;;;;4.05;1.40;;;;;;;14.75;52.58;99507.19;4363353;32;34165;-72
2022/05/23 00:44:34;;;;;;;2.58;1.77;;;;;;;15.37;50.94;99504.00;4363330;32;35171;-71
2022/05/23 00:47:16;;;;;;;2.53;1.60;;;;;;;15.20;51.01;99496.19;4363141;32;33912;-72
2022/05/23 00:49:44;;;;;;;2.25;1.83;;;;;;;15.20;51.41;99503.59;4349827;32;33416;-72
2022/05/23 00:52:22;;;;;;;2.45;1.48;;;;;;;15.17;51.24;99508.53;4362820;32;34147;-72
2022/05/23 00:54:51;;;;;;;4.80;1.85;;;;;;;15.05;51.47;99502.59;4362838;32;33721;-72
2022/05/23 00:57:22;;;;;;;2.60;1.80;;;;;;;15.03;51.43;99502.09;4363114;32;33951;-71
2022/05/23 00:59:50;;;;;;;2.67;1.75;;;;;;;14.93;52.12;99502.97;4349788;32;34046;-71
2022/05/23 01:02:19;;;;;;;2.62;1.80;;;;;;;14.90;52.05;99503.53;4363429;32;33888;-71
2022/05/23 01:04:47;;;;;;;1.90;1.50;;;;;;;14.91;51.96;99498.87;4349730;32;35085;-72
2022/05/23 01:07:15;;;;;;;3.83;1.90;;;;;;;15.06;51.31;99506.16;4349653;32;34571;-72
2022/05/23 01:09:43;;;;;;;2.28;1.60;;;;;;;14.97;51.66;99506.75;4363172;32;34328;-72
2022/05/23 01:12:10;;;;;;;1.98;1.60;;;;;;;14.82;52.41;99501.41;4362995;32;33995;-71
2022/05/23 01:14:57;;;;;;;1.80;1.50;;;;;;;14.39;53.58;99502.97;4363399;32;35117;-71
2022/05/23 01:17:27;;;;;;;2.25;1.80;;;;;;;14.34;53.87;99504.63;4349268;32;33918;-71
2022/05/23 01:19:56;;;;;;;2.62;1.65;;;;;;;14.71;53.26;99505.31;4362951;32;33426;-71
2022/05/23 01:22:34;;;;;;;3.15;1.75;;;;;;;14.83;52.74;99503.03;4362707;32;34276;-72
2022/05/23 01:25:18;;;;;;;2.85;1.92;;;;;;;14.90;52.21;99509.00;4363283;32;34221;-72
2022/05/23 01:27:47;;;;;;;2.30;2.00;;;;;;;14.94;52.12;99504.56;4363210;32;32511;-72
2022/05/23 01:30:16;;;;;;;2.03;1.60;;;;;;;14.16;54.24;99500.59;4362790;32;33148;-72
2022/05/23 01:32:44;;;;;;;3.28;1.60;;;;;;;13.97;54.79;99496.84;4363268;32;34084;-72
2022/05/23 01:35:12;;;;;;;3.35;1.70;;;;;;;14.29;54.21;99495.63;4362792;32;34216;-72
2022/05/23 01:37:40;;;;;;;2.90;2.00;;;;;;;13.92;54.94;99488.69;4363269;32;33824;-72
2022/05/23 01:40:12;;;;;;;1.92;1.77;;;;;;;14.47;53.70;99477.81;4363162;32;33559;-73
2022/05/23 01:42:41;;;;;;;3.33;1.85;;;;;;;14.53;53.39;99479.41;4362848;32;33860;-72
2022/05/23 01:45:12;;;;;;;3.15;1.73;;;;;;;14.57;53.09;99481.31;4362688;32;34198;-72
2022/05/23 01:47:39;;;;;;;2.28;1.90;;;;;;;14.34;53.72;99480.06;4362890;32;34062;-72
2022/05/23 01:50:07;;;;;;;1.87;1.58;;;;;;;14.26;54.37;99479.84;4362358;32;33451;-72
2022/05/23 01:52:36;;;;;;;1.80;1.52;;;;;;;14.37;54.17;99478.69;4362755;32;33966;-72
2022/05/23 01:55:07;;;;;;;2.78;1.80;;;;;;;14.44;53.15;99476.47;4362840;32;34784;-72
2022/05/23 01:57:35;;;;;;;2.30;1.87;;;;;;;14.48;52.86;99471.25;4362645;32;34003;-72
2022/05/23 02:02:51;;;;;;;2.33;1.87;;;;;;;14.27;53.51;99476.00;4362455;32;34064;-72
2022/05/23 02:05:19;;;;;;;2.33;1.50;;;;;;;14.19;53.73;99460.19;4361956;32;34293;-72
2022/05/23 02:07:47;;;;;;;2.05;1.70;;;;;;;14.33;53.63;99464.78;4362671;32;33583;-72
2022/05/23 02:10:15;;;;;;;3.22;2.00;;;;;;;13.97;54.63;99472.28;4362684;32;33295;-72
2022/05/23 02:12:43;;;;;;;4.22;1.98;;;;;;;14.33;53.20;99472.97;4362470;32;34795;-72
2022/05/23 02:15:11;;;;;;;1.90;1.67;;;;;;;13.71;55.09;99466.09;4362596;32;33961;-72
2022/05/23 02:17:40;;;;;;;2.17;1.83;;;;;;;13.92;54.68;99462.22;4362742;32;33175;-70
2022/05/23 02:20:08;;;;;;;2.35;1.75;;;;;;;14.02;54.42;99466.84;4362348;32;33583;-72
2022/05/23 02:22:36;;;;;;;2.33;1.80;;;;;;;14.01;54.69;99473.38;4361929;32;34724;-71
2022/05/23 02:25:12;;;;;;;2.83;1.92;;;;;;;13.60;55.80;99469.94;4362467;32;34150;-72
2022/05/23 02:27:40;;;;;;;2.15;1.87;;;;;;;13.52;55.63;99472.16;4362345;32;34052;-72
2022/05/23 02:30:08;;;;;;;2.00;1.75;;;;;;;13.90;54.56;99467.13;4362080;32;33495;-72
2022/05/23 02:32:36;;;;;;;2.15;1.87;;;;;;;13.76;55.27;99463.38;4362477;32;33958;-72
2022/05/23 02:35:04;;;;;;;2.53;1.60;;;;;;;13.78;55.14;99461.19;4362288;32;34064;-71
2022/05/23 02:37:32;;;;;;;2.72;1.70;;;;;;;13.74;54.63;99458.19;4361966;32;33915;-71
2022/05/23 02:40:00;;;;;;;1.80;1.60;;;;;;;13.61;55.06;99466.13;4362453;32;34123;-72
2022/05/23 02:42:28;;;;;;;2.95;2.10;;;;;;;13.83;54.61;99463.09;4362097;32;34764;-70
2022/05/23 02:44:56;;;;;;;2.50;1.73;;;;;;;13.81;54.34;99470.72;4362102;32;34260;-71
2022/05/23 02:47:24;;;;;;;1.80;1.62;;;;;;;13.99;53.91;99466.56;4362273;32;34853;-71
2022/05/23 02:49:52;;;;;;;3.95;1.98;;;;;;;13.59;55.33;99460.97;4362261;32;34386;-72
2022/05/23 02:52:21;;;;;;;3.20;1.90;;;;;;;13.65;55.36;99457.12;4362371;32;33839;-70
2022/05/23 02:54:51;;;;;;;2.67;2.00;;;;;;;13.38;56.17;99456.62;4361975;32;34390;-72
2022/05/23 02:57:18;;;;;;;2.25;1.90;;;;;;;13.20;56.69;99455.25;4361791;32;33967;-69
2022/05/23 02:59:46;;;;;;;3.03;2.20;;;;;;;13.22;56.83;99456.62;4361645;32;33494;-71
2022/05/23 03:05:01;;;;;;;3.30;1.80;;;;;;;13.37;56.28;99458.53;4361643;32;35122;-71
2022/05/23 03:07:29;;;;;;;2.03;1.62;;;;;;;13.05;57.16;99466.97;4362092;32;33921;-72
2022/05/23 03:09:57;;;;;;;2.35;1.87;;;;;;;13.00;57.21;99458.78;4361890;32;33163;-72
2022/05/23 03:12:27;;;;;;;2.08;1.85;;;;;;;12.95;57.46;99459.59;4348498;32;34085;-72
2022/05/23 03:14:54;;;;;;;4.30;2.20;;;;;;;13.25;56.88;99457.97;4361610;32;35036;-72
2022/05/23 03:17:22;;;;;;;2.78;2.03;;;;;;;12.93;57.89;99473.47;4362193;32;34816;-72
2022/05/23 03:19:50;;;;;;;2.12;1.90;;;;;;;13.40;56.30;99466.16;4363857;32;33419;-71
2022/05/23 03:27:51;;;;;;;2.35;2.00;;;;;;;13.83;54.84;99466.63;4363862;32;33965;-72
2022/05/23 03:30:19;;;;;;;3.28;2.40;;;;;;;13.90;55.09;99471.78;4363928;32;33994;-72
2022/05/23 03:32:49;;;;;;;2.42;2.03;;;;;;;14.01;54.73;99469.81;4350562;32;34075;-72
2022/05/23 03:35:17;;;;;;;3.22;2.22;;;;;;;14.33;53.69;99472.16;4363534;32;35204;-72
2022/05/23 03:37:45;;;;;;;4.05;1.90;;;;;;;14.29;55.19;99473.81;4363710;32;34035;-72
2022/05/23 03:40:13;;;;;;;2.58;2.22;;;;;;;14.75;53.58;99477.13;4363801;32;33017;-73
2022/05/23 03:42:41;;;;;;;5.22;1.85;;;;;;;15.12;51.92;99481.25;4363577;32;33997;-73
2022/05/23 03:45:09;;;;;;;2.62;1.83;;;;;;;15.58;50.74;99486.28;4363531;32;34218;-72
2022/05/23 03:47:37;;;;;;;2.12;1.90;;;;;;;15.99;49.41;99474.94;4363368;32;34061;-72
2022/05/23 03:50:08;;;;;;;3.45;2.10;;;;;;;15.88;50.94;99473.44;4363265;32;34288;-71
2022/05/23 03:52:35;;;;;;;3.42;1.83;;;;;;;16.02;50.90;99468.06;4363539;32;34096;-72
2022/05/23 03:55:03;;;;;;;3.58;2.15;;;;;;;16.23;49.44;99470.56;4363573;32;35148;-72
2022/05/23 03:57:31;;;;;;;2.58;1.80;;;;;;;16.74;47.67;99472.63;4363052;32;33974;-71
2022/05/23 03:59:59;;;;;;;2.62;1.90;;;;;;;17.10;46.34;99472.09;4363327;32;33412;-72
2022/05/23 04:02:27;;;;;;;5.37;1.87;;;;;;;17.58;44.60;99464.41;4363538;32;34013;-74
2022/05/23 04:04:55;;;;;;;2.35;1.73;;;;;;;17.75;44.41;99466.59;4363349;32;34172;-72
2022/05/23 04:07:24;;;;;;;2.22;1.70;;;;;;;17.74;44.48;99472.38;4363613;32;32144;-72
2022/05/23 04:09:53;;;;;;;4.43;2.10;;;;;;;18.46;42.70;99469.00;4363660;32;34020;-72
2022/05/23 04:12:21;;;;;;;2.40;1.85;;;;;;;18.79;41.73;99471.59;4363538;32;33859;-71
2022/05/23 04:14:48;;;;;;;2.65;1.85;;;;;;;18.85;41.43;99462.09;4363385;32;34923;-72
2022/05/23 04:17:16;;;;;;;2.33;1.75;;;;;;;19.05;41.58;99469.06;4363272;32;33466;-74
2022/05/23 04:19:45;;;;;;;2.05;1.60;;;;;;;19.14;41.03;99464.44;4363567;32;34213;-72
2022/05/23 04:22:13;;;;;;;3.62;1.98;;;;;;;19.32;40.48;99465.38;4363450;32;34276;-71
2022/05/23 04:24:43;;;;;;;1.98;1.40;;;;;;;19.50;40.74;99463.53;4363092;32;35139;-70
2022/05/23 04:27:10;;;;;;;3.08;1.70;;;;;;;19.57;41.81;99465.84;4362771;32;33941;-70
2022/05/23 04:29:41;;;;;;;2.47;1.65;;;;;;;19.92;39.89;99461.34;4361756;32;33476;-70
2022/05/23 04:35:13;;;;;;;1.95;1.60;;;;;;;19.86;39.25;99457.09;4339152;32;34863;-72
2022/05/23 04:37:48;;;;;;;2.15;1.60;;;;;;;19.67;41.00;99452.63;4358111;32;33954;-72
2022/05/23 04:40:22;;;;;;;2.45;1.60;;;;;;;20.56;39.74;99460.84;4356531;32;33544;-70
2022/05/23 04:42:50;;;;;;;1.67;1.48;;;;;;;21.15;38.24;99454.88;4360652;32;34701;-71
2022/05/23 04:45:19;;;;;;;2.35;1.40;;;;;;;21.17;37.98;99452.59;4362087;32;34192;-70
2022/05/23 04:50:34;;;;;;;2.05;1.45;;;;;;;21.79;37.01;99469.84;4361933;32;34129;-71
2022/05/23 04:53:02;;;;;;;1.70;1.60;;;;;;;22.23;35.96;99471.28;4361997;32;34792;-71
2022/05/23 04:55:30;;;;;;;4.57;1.60;;;;;;;22.33;36.43;99472.84;4361940;32;34793;-71
2022/05/23 04:57:59;;;;;;;4.35;1.80;;;;;;;21.83;37.40;99466.06;4350424;32;34716;-74
2022/05/23 05:00:29;;;;;;;2.30;1.58;;;;;;;21.42;37.49;99461.19;4361156;32;33224;-74
2022/05/23 05:03:00;;;;;;;3.62;1.98;;;;;;;21.56;38.47;99475.59;4362026;32;33394;-72
2022/05/23 05:05:30;;;;;;;1.60;1.48;;;;;;;22.18;37.31;99481.69;4361959;32;34852;-72
2022/05/23 05:08:15;;;;;;;2.28;1.60;;;;;;;21.46;38.79;99481.47;4361324;32;34794;-70
2022/05/23 05:10:43;;;;;;;2.03;1.70;;;;;;;20.61;37.88;99485.53;4362087;32;34338;-68
2022/05/23 05:13:11;;;;;;;2.40;1.90;;;;;;;19.78;40.47;99480.69;4347621;32;33693;-69
2022/05/23 05:15:40;;;;;;;4.97;1.92;;;;;;;19.94;40.90;99485.81;4350091;32;34124;-70
2022/05/23 05:18:09;;;;;;;2.33;1.80;;;;;;;19.60;43.22;99488.03;4347003;33;33947;-70
2022/05/23 05:20:38;;;;;;;5.15;2.60;;;;;;;20.35;40.68;99492.91;4346716;33;34186;-71
2022/05/23 05:23:08;;;;;;;6.22;2.08;;;;;;;19.53;41.37;99487.66;4346501;33;33629;-70
2022/05/23 05:25:40;;;;;;;2.80;2.05;;;;;;;19.11;41.94;99484.31;4345665;32;34192;-71
2022/05/23 05:28:11;;;;;;;2.78;1.80;;;;;;;19.01;43.13;99479.88;4347173;33;34522;-70
2022/05/23 05:30:41;;;;;;;3.55;1.98;;;;;;;19.71;41.71;99483.09;4346872;33;34109;-70
2022/05/23 05:33:16;;;;;;;2.47;1.83;;;;;;;19.42;41.48;99484.38;4333909;33;33556;-70
2022/05/23 05:35:46;;;;;;;2.17;1.90;;;;;;;19.59;40.88;99489.16;4360202;32;34285;-70
2022/05/23 05:38:22;;;;;;;2.33;1.85;;;;;;;20.05;40.88;99487.94;4357634;32;33931;-70
2022/05/23 05:41:03;;;;;;;2.40;1.87;;;;;;;19.05;41.84;99486.38;4333399;33;33481;-71
2022/05/23 05:43:35;;;;;;;2.17;1.60;;;;;;;19.03;42.55;99483.13;4345976;32;35683;-71
2022/05/23 05:46:09;;;;;;;3.42;1.77;;;;;;;19.77;41.93;99483.78;4348521;32;34286;-72
2022/05/23 05:48:40;;;;;;;3.25;1.90;;;;;;;20.30;40.62;99485.59;4348359;32;34007;-70
2022/05/23 05:51:09;;;;;;;2.85;1.73;;;;;;;21.16;38.13;99489.59;4361784;32;33477;-71
2022/05/23 05:53:39;;;;;;;1.73;1.42;;;;;;;21.65;36.71;99492.94;4347244;32;34042;-71
2022/05/23 05:56:09;;;;;;;2.22;1.50;;;;;;;22.25;34.55;99493.06;4361572;32;34214;-72
2022/05/23 05:58:37;;;;;;;2.30;1.83;;;;;;;23.39;31.80;99491.09;4361078;32;33625;-72
2022/05/23 06:01:06;;;;;;;2.35;1.40;;;;;;;23.53;31.08;99499.91;4348388;32;34328;-72
2022/05/23 06:03:34;;;;;;;3.03;1.30;;;;;;;23.63;31.81;99489.53;4357981;32;33523;-70
2022/05/23 06:11:37;;;;;;;4.18;1.60;;;;;;;24.37;28.97;99499.56;4362960;32;34254;-73
2022/05/23 06:14:05;;;;;;;3.05;1.45;;;;;;;23.85;29.87;99502.22;4350932;32;33426;-73
2022/05/23 06:16:35;;;;;;;1.92;1.20;;;;;;;24.97;28.25;99504.59;4347635;33;33890;-72
2022/05/23 06:19:04;;;;;;;2.55;1.40;;;;;;;25.32;27.32;99504.84;4349428;32;34575;-72
2022/05/23 06:21:32;;;;;;;2.37;1.17;;;;;;;24.07;28.92;99504.53;4362394;32;33543;-73
2022/05/23 06:24:00;;;;;;;1.80;1.20;;;;;;;24.05;28.73;99500.50;4362106;32;34317;-73
2022/05/23 06:26:34;;;;;;;1.15;1.02;;;;;;;24.26;28.48;99506.75;4354264;32;35070;-71
2022/05/23 06:29:04;;;;;;;2.60;1.40;;;;;;;24.60;29.46;99512.16;4347678;33;34291;-71
2022/05/23 06:31:32;;;;;;;1.75;1.40;;;;;;;24.64;29.42;99508.34;4334545;33;33990;-72
2022/05/23 06:34:00;;;;;;;1.60;1.17;;;;;;;24.27;30.29;99502.81;4348371;32;34094;-72
2022/05/23 06:36:29;;;;;;;3.78;1.30;;;;;;;24.49;29.69;99496.03;4347953;32;35058;-71
2022/05/23 06:38:56;;;;;;;1.60;1.30;;;;;;;23.82;31.00;99492.59;4347687;33;33678;-73
2022/05/23 06:41:27;;;;;;;2.12;1.37;;;;;;;24.24;29.51;99499.94;4358281;32;32601;-74
2022/05/23 06:43:55;;;;;;;3.15;1.10;;;;;;;24.86;28.95;99490.41;4361757;32;34676;-73
2022/05/23 06:46:25;;;;;;;1.77;1.10;;;;;;;24.75;28.35;99489.25;4362062;32;32665;-73
2022/05/23 06:48:56;;;;;;;1.90;1.30;;;;;;;25.44;27.63;99483.72;4361915;32;32482;-75
2022/05/23 06:51:25;;;;;;;3.05;1.52;;;;;;;26.30;26.89;99477.59;4347090;32;31818;-73
2022/05/23 06:53:57;;;;;;;1.50;1.27;;;;;;;26.93;25.67;99476.63;4355751;32;34708;-74
2022/05/23 06:56:25;;;;;;;3.92;1.37;;;;;;;27.78;24.37;99477.50;4363621;32;34952;-74
2022/05/23 06:58:54;;;;;;;1.92;1.27;;;;;;;28.25;23.43;99478.31;4362749;32;33915;-74
2022/05/23 07:01:23;;;;;;;1.67;1.33;;;;;;;27.95;24.32;99473.44;4350547;32;32284;-75
2022/05/23 07:03:55;;;;;;;2.13;1.23;;;;;;;28.11;23.82;99473.28;4359062;32;35483;-73
2022/05/23 07:14:43;;;;;;;1.23;1.00;;;;;;;30.09;21.50;99470.13;4362806;32;33923;-72
2022/05/23 07:17:10;;;;;;;1.15;0.90;;;;;;;29.65;21.58;99469.75;4353773;32;33969;-74
2022/05/23 07:19:43;;;;;;;1.42;1.23;;;;;;;29.20;21.45;99470.84;4358717;32;33389;-73
2022/05/23 07:22:12;;;;;;;2.80;1.65;;;;;;;28.82;22.33;99470.75;4356376;32;34002;-75
2022/05/23 07:24:41;;;;;;;2.40;1.10;;;;;;;28.69;22.72;99466.59;4362095;32;33894;-73
2022/05/23 07:27:11;;;;;;;1.67;1.12;;;;;;;28.51;23.13;99460.78;4351006;32;34979;-73
2022/05/23 07:29:40;;;;;;;1.17;1.08;;;;;;;28.42;23.26;99457.41;4347851;33;34472;-72
2022/05/23 07:32:11;;;;;;;1.75;1.12;;;;;;;27.87;23.36;99443.81;4359083;32;33361;-76
2022/05/23 07:34:39;;;;;;;2.65;1.30;;;;;;;27.06;24.12;99447.44;4349114;32;33510;-75
2022/05/23 07:37:08;;;;;;;1.50;1.35;;;;;;;26.44;25.97;99446.53;4362212;32;35026;-73
2022/05/23 07:39:37;;;;;;;1.45;1.23;;;;;;;26.29;26.87;99448.16;4362416;32;34119;-75
2022/05/23 07:42:07;;;;;;;1.50;1.27;;;;;;;25.80;27.89;99449.34;4361845;32;31913;-75
2022/05/23 07:44:36;;;;;;;1.73;1.10;;;;;;;24.53;28.88;99447.00;4347242;33;34288;-72
2022/05/23 07:47:06;;;;;;;1.20;1.10;;;;;;;24.35;28.09;99448.41;4346928;33;34014;-72
2022/05/23 07:49:34;;;;;;;1.27;0.90;;;;;;;24.10;27.77;99440.12;4347766;33;33430;-73
2022/05/23 07:52:04;;;;;;;1.98;1.20;;;;;;;23.70;28.19;99446.28;4347710;33;33524;-80
2022/05/23 08:02:52;;;;;;;1.05;1.00;;;;;;;22.50;30.82;99431.31;4348268;33;33797;-72
2022/05/23 08:05:20;;;;;;;1.40;1.20;;;;;;;23.23;31.28;99427.25;4334940;33;34799;-75
2022/05/23 08:07:49;;;;;;;2.65;1.27;;;;;;;23.56;31.16;99429.16;4348694;32;34003;-77
2022/05/23 08:10:18;;;;;;;6.95;1.50;;;;;;;23.54;30.48;99431.47;4353487;32;34562;-71
2022/05/23 08:12:54;;;;;;;1.85;1.17;;;;;;;23.65;29.40;99423.53;4361723;32;33488;-71
2022/05/23 08:15:26;;;;;;;1.87;1.30;;;;;;;23.66;30.42;99425.97;4356743;32;34736;-75
2022/05/23 08:17:54;;;;;;;3.95;1.10;;;;;;;23.38;30.25;99425.00;4348806;33;34239;-76
2022/05/23 08:20:26;;;;;;;2.25;1.23;;;;;;;23.86;30.66;99423.47;4360537;32;33933;-73
2022/05/23 08:22:55;;;;;;;1.77;1.00;;;;;;;23.98;30.86;99428.22;4349584;32;33538;-73
2022/05/23 08:25:25;;;;;;;1.77;0.95;;;;;;;24.09;30.94;99423.81;4359351;32;33917;-71
2022/05/23 08:27:53;;;;;;;1.10;1.00;;;;;;;24.04;30.84;99421.25;4363081;32;33858;-72
2022/05/23 08:30:21;;;;;;;2.22;0.93;;;;;;;24.70;29.58;99422.91;4349605;32;34881;-72
2022/05/23 08:32:53;;;;;;;1.10;1.00;;;;;;;23.26;29.54;99420.22;4363344;32;33496;-72
2022/05/23 08:35:24;;;;;;;2.58;1.20;;;;;;;23.43;27.58;99413.69;4363101;32;34942;-73
2022/05/23 08:37:54;;;;;;;1.40;1.05;;;;;;;24.29;27.75;99410.97;4360929;32;34651;-71
2022/05/23 08:40:36;;;;;;;1.10;0.88;;;;;;;24.19;29.53;99409.50;4348517;32;33839;-72
2022/05/23 08:43:05;;;;;;;1.55;1.00;;;;;;;24.54;29.23;99404.25;4348980;32;33453;-73
2022/05/23 08:45:37;;;;;;;1.98;1.05;;;;;;;24.43;30.62;99402.28;4353512;32;34453;-73
2022/05/23 08:48:14;;;;;;;1.23;1.02;;;;;;;24.57;29.63;99397.19;4362891;32;34058;-73
2022/05/23 08:50:51;;;;;;;2.22;1.10;;;;;;;24.24;29.11;99400.13;4362824;32;33874;-72
2022/05/23 08:53:30;;;;;;;2.55;1.10;;;;;;;24.01;29.17;99388.72;4349927;32;34309;-70
2022/05/23 08:56:03;;;;;;;1.23;1.10;;;;;;;24.47;28.67;99389.31;4334905;33;34011;-73
2022/05/23 08:58:47;;;;;;;2.87;1.27;;;;;;;24.60;27.77;99390.94;4348184;33;34553;-75
2022/05/23 09:01:18;;;;;;;6.60;1.12;;;;;;;24.00;28.27;99387.91;4335704;32;33964;-73
2022/05/23 09:03:55;;;;;;;1.30;1.10;;;;;;;23.86;28.33;99387.44;4334671;33;34103;-75
2022/05/23 09:06:23;;;;;;;1.95;1.15;;;;;;;23.82;29.08;99384.56;4336244;32;33986;-74
2022/05/23 09:08:52;;;;;;;1.48;1.23;;;;;;;23.78;29.06;99386.44;4362457;32;34299;-74
2022/05/23 09:11:22;;;;;;;1.30;1.00;;;;;;;24.13;29.20;99380.41;4349666;32;33939;-74
2022/05/23 09:13:51;;;;;;;1.20;1.10;;;;;;;24.25;27.76;99380.34;4349286;32;33140;-72
2022/05/23 09:16:19;;;;;;;1.75;1.20;;;;;;;24.65;28.26;99385.16;4362152;32;34025;-74
2022/05/23 09:18:50;;;;;;;1.65;1.10;;;;;;;23.59;29.68;99375.87;4335170;33;33961;-74
2022/05/23 09:21:18;;;;;;;1.52;1.00;;;;;;;22.96;30.50;99378.00;4348414;33;34810;-73
2022/05/23 09:23:51;;;;;;;1.05;0.98;;;;;;;23.20;32.23;99380.91;4348653;32;33514;-76
2022/05/23 09:26:38;;;;;;;1.70;1.15;;;;;;;23.85;29.72;99374.78;4348010;32;33994;-74
2022/05/23 09:29:09;;;;;;;1.90;1.00;;;;;;;24.08;30.28;99386.16;4347935;33;34549;-75
2022/05/23 09:31:59;;;;;;;1.65;1.10;;;;;;;24.23;28.90;99377.13;4348774;32;34882;-76
2022/05/23 09:34:26;;;;;;;1.98;1.08;;;;;;;24.21;29.29;99373.09;4334966;33;33275;-75
2022/05/23 09:36:55;;;;;;;1.75;1.15;;;;;;;24.49;29.39;99384.25;4357038;32;34804;-77
2022/05/23 09:39:24;;;;;;;1.10;1.00;;;;;;;24.52;28.57;99378.81;4351849;32;34318;-72
2022/05/23 09:47:46;;;;;;;2.60;1.30;;;;;;;24.75;29.02;99376.31;4358118;32;33967;-77
2022/05/23 09:50:26;;;;;;;2.25;1.33;;;;;;;24.92;27.86;99366.91;4362451;32;34369;-76
2022/05/23 09:53:21;;;;;;;;;;;;;;;25.11;28.18;99359.84;4362987;32;34821;-75
2022/05/23 09:55:49;;;;;;;2.30;1.10;;;;;;;25.15;27.74;99355.19;4362539;32;34246;-74
2022/05/23 09:58:22;;;;;;;1.15;1.05;;;;;;;25.07;26.86;99354.19;4362437;32;33918;-74
2022/05/23 10:01:07;;;;;;;1.58;1.05;;;;;;;25.14;27.14;99361.88;4347656;32;35091;-74
2022/05/23 10:03:47;;;;;;;2.75;1.30;;;;;;;24.91;26.31;99358.91;4340730;32;34703;-73
2022/05/23 10:06:18;;;;;;;4.03;1.08;;;;;;;24.71;26.72;99363.53;4352320;32;33567;-72
2022/05/23 10:08:48;;;;;;;1.80;1.20;;;;;;;24.83;27.33;99363.44;4339656;32;34045;-73
2022/05/23 10:11:21;;;;;;;2.35;1.12;;;;;;;25.09;26.24;99360.19;4349525;32;34139;-72
2022/05/23 10:14:00;;;;;;;1.55;1.10;;;;;;;25.11;27.04;99354.28;4349155;32;34098;-71
2022/05/23 10:16:30;;;;;;;1.98;1.10;;;;;;;25.14;27.83;99362.72;4347494;32;33527;-77
2022/05/23 10:19:03;;;;;;;3.53;1.30;;;;;;;25.07;27.58;99362.50;4348238;32;34082;-74
2022/05/23 10:21:40;;;;;;;2.95;1.25;;;;;;;25.55;27.11;99360.63;4348255;32;34539;-75
2022/05/23 10:24:14;;;;;;;2.92;1.48;;;;;;;25.74;27.10;99350.72;4347179;33;33932;-75
2022/05/23 10:27:06;;;;;;;2.37;1.17;;;;;;;25.09;26.33;99349.09;4354324;32;34262;-71
2022/05/23 10:29:57;;;;;;;2.20;0.98;;;;;;;25.81;25.35;99355.66;4342326;33;34783;-73
2022/05/23 10:32:28;;;;;;;2.12;1.20;;;;;;;25.64;25.99;99354.88;4334186;33;35015;-73
2022/05/23 10:35:29;;;;;;;1.95;1.27;;;;;;;25.58;25.95;99347.97;4347524;33;34762;-73
2022/05/23 10:42:07;;;;;;;1.87;1.17;;;;;;;25.07;25.84;99350.59;4336203;33;34364;-74
2022/05/23 10:43:57;;;;;;;2.15;1.20;;;;;;;25.42;26.10;99345.22;4351905;32;34698;-74
2022/05/23 10:46:27;;;;;;;1.35;1.25;;;;;;;25.16;27.70;99332.63;4341918;32;33878;-74
2022/05/23 10:49:21;;;;;;;1.40;1.12;;;;;;;25.43;27.93;99332.94;4353355;32;33550;-73
2022/05/23 10:51:57;;;;;;;1.30;1.20;;;;;;;25.44;24.58;99337.31;4360019;32;33985;-72
2022/05/23 10:54:51;;;;;;;1.48;1.25;;;;;;;25.73;25.74;99324.94;4361893;32;34584;-74
2022/05/23 10:57:58;;;;;;;2.53;1.40;;;;;;;25.72;25.18;99323.31;4348257;32;34752;-73
2022/05/23 11:00:53;;;;;;;1.62;1.27;;;;;;;25.63;26.05;99311.59;4306099;33;33476;-74
2022/05/23 11:03:32;;;;;;;1.30;1.20;;;;;;;25.66;25.85;99308.09;4313498;33;33780;-72
2022/05/23 11:06:16;;;;;;;2.70;1.10;;;;;;;24.90;28.74;99304.56;4342427;32;33787;-74
2022/05/23 11:09:26;;;;;;;1.90;1.23;;;;;;;25.77;26.60;99298.03;4348379;32;34608;-73
2022/05/23 11:12:28;;;;;;;2.47;1.12;;;;;;;25.91;25.09;99300.34;4338286;32;33425;-73
2022/05/23 11:15:16;;;;;;;1.77;1.25;;;;;;;25.18;25.99;99285.88;4361569;32;34001;-73
2022/05/23 11:17:50;;;;;;;2.03;1.20;;;;;;;25.09;27.31;99296.34;4347909;32;34272;-72
2022/05/23 11:20:35;;;;;;;1.77;1.20;;;;;;;25.76;25.58;99292.81;4341888;32;34597;-73
2022/05/23 11:23:02;;;;;;;;;;;;;;;25.88;25.19;99297.47;4347192;33;33340;-74
2022/05/23 11:25:32;;;;;;;3.22;1.20;;;;;;;25.48;25.18;99293.75;4346661;33;34077;-73
2022/05/23 11:33:59;;;;;;;1.65;1.15;;;;;;;24.30;26.19;99290.63;4348062;32;33450;-74
2022/05/23 11:36:56;;;;;;;2.65;1.27;;;;;;;25.28;26.27;99289.31;4334665;32;33181;-76
2022/05/23 11:39:43;;;;;;;1.70;1.20;;;;;;;25.78;27.01;99293.28;4348500;32;34007;-77
2022/05/23 11:42:24;;;;;;;3.90;1.45;;;;;;;26.09;25.85;99288.81;4348834;33;33671;-78
2022/05/23 11:44:55;;;;;;;1.70;1.25;;;;;;;26.32;25.84;99298.03;4348428;33;33295;-75
2022/05/23 11:47:28;;;;;;;1.85;1.20;;;;;;;26.10;24.61;99285.69;4348895;33;34092;-77
2022/05/23 11:50:04;;;;;;;1.90;1.30;;;;;;;26.09;25.90;99288.81;4346964;33;34292;-77
2022/05/23 11:52:40;;;;;;;1.20;1.10;;;;;;;25.86;27.51;99285.91;4334262;33;34017;-79
2022/05/23 11:55:10;;;;;;;3.58;1.17;;;;;;;26.30;25.66;99277.34;4343446;33;34268;-75
2022/05/23 11:57:41;;;;;;;1.87;1.48;;;;;;;25.97;26.47;99278.66;4336230;33;34030;-77
2022/05/23 12:00:31;;;;;;;3.90;1.55;;;;;;;26.51;25.74;99268.63;4347410;33;35086;-74
2022/05/23 12:03:17;;;;;;;3.30;1.65;;;;;;;26.30;26.63;99278.13;4352988;32;33739;-73
2022/05/23 12:05:45;;;;;;;1.48;1.20;;;;;;;26.15;26.97;99288.16;4343755;32;33415;-76
2022/05/23 12:08:27;;;;;;;1.60;1.20;;;;;;;25.31;25.68;99278.31;4353761;32;34232;-78
2022/05/23 12:10:58;;;;;;;1.77;1.20;;;;;;;25.03;25.73;99281.12;4344893;32;33834;-77
2022/05/23 12:13:37;;;;;;;2.35;1.45;;;;;;;25.30;25.84;99287.78;4338274;33;34094;-74
2022/05/23 12:16:39;;;;;;;2.83;1.30;;;;;;;25.95;27.21;99284.56;4347533;33;33047;-76
2022/05/23 12:19:24;;;;;;;1.70;1.40;;;;;;;26.48;25.16;99278.50;4339340;33;34650;-76
2022/05/23 12:21:51;;;;;;;1.83;1.30;;;;;;;26.75;23.73;99279.44;4347021;33;34326;-78
2022/05/23 12:24:28;;;;;;;2.37;1.33;;;;;;;25.87;25.08;99268.06;4347236;33;33923;-77
2022/05/23 12:27:44;;;;;;;1.40;1.30;;;;;;;26.47;25.61;99271.31;4346913;33;34050;-75
2022/05/23 12:30:22;;;;;;;2.17;1.30;;;;;;;26.39;24.64;99255.66;4334818;33;33758;-73
2022/05/23 12:32:53;;;;;;;1.77;1.37;;;;;;;25.90;25.61;99248.72;4347152;33;34185;-72
2022/05/23 12:35:44;;;;;;;1.35;1.25;;;;;;;24.98;26.03;99242.53;4333734;33;33551;-78
2022/05/23 12:38:30;;;;;;;2.40;1.10;;;;;;;24.77;28.01;99240.84;4347856;32;33928;-78
2022/05/23 12:41:14;;;;;;;2.42;1.48;;;;;;;24.81;29.40;99240.91;4349528;32;33965;-77
2022/05/23 12:43:52;;;;;;;2.62;1.20;;;;;;;25.14;26.78;99245.28;4336002;33;33811;-77
2022/05/23 12:46:57;;;;;;;1.40;1.20;;;;;;;24.85;28.84;99243.78;4347013;33;33490;-79
2022/05/23 12:49:34;;;;;;;2.78;1.30;;;;;;;25.73;27.15;99236.00;4347098;32;32898;-76
2022/05/23 12:52:28;;;;;;;1.70;1.40;;;;;;;26.55;26.44;99228.56;4346104;32;33993;-79
2022/05/23 12:55:22;;;;;;;3.33;1.45;;;;;;;26.47;25.35;99220.47;4356395;32;161504;-75
2022/05/23 12:58:24;;;;;;;2.95;1.27;;;;;;;25.86;25.33;99219.22;4361446;32;33632;-75
2022/05/23 13:01:04;;;;;;;1.40;1.12;;;;;;;25.85;25.64;99221.16;4306797;33;32923;-74